sensor_id;sensor_type;location;lat;lon;timestamp;temperature;humidity
20141;DHT22;10231;47.702;9.826;2023-04-24T00:00:40;10.00;99.90
20141;DHT22;10231;47.702;9.826;2023-04-24T00:03:06;10.10;99.90
20141;DHT22;10231;47.702;9.826;2023-04-24T00:05:32;10.10;99.90
20141;DHT22;10231;47.702;9.826;2023-04-24T00:07:58;10.10;99.90
20141;DHT22;10231;47.702;9.826;2023-04-24T00:10:23;10.20;99.90
20141;DHT22;10231;47.702;9.826;2023-04-24T00:12:49;10.20;99.90
20141;DHT22;10231;47.702;9.826;2023-04-24T00:15:15;10.20;99.90
20141;DHT22;10231;47.702;9.826;2023-04-24T00:17:40;10.20;99.90
20141;DHT22;10231;47.702;9.826;2023-04-24T00:20:06;10.20;99.90
20141;DHT22;10231;47.702;9.826;2023-04-24T00:22:32;10.20;99.90
20141;DHT22;10231;47.702;9.826;2023-04-24T00:24:58;10.20;99.90
20141;DHT22;10231;47.702;9.826;2023-04-24T00:27:24;10.20;99.90
20141;DHT22;10231;47.702;9.826;2023-04-24T00:29:49;10.20;99.90
20141;DHT22;10231;47.702;9.826;2023-04-24T00:32:15;10.30;99.90
20141;DHT22;10231;47.702;9.826;2023-04-24T00:34:41;10.30;99.90
20141;DHT22;10231;47.702;9.826;2023-04-24T00:37:07;10.30;99.90
20141;DHT22;10231;47.702;9.826;2023-04-24T00:39:32;10.20;99.90
20141;DHT22;10231;47.702;9.826;2023-04-24T00:41:58;10.30;99.90
20141;DHT22;10231;47.702;9.826;2023-04-24T00:44:24;10.30;99.90
20141;DHT22;10231;47.702;9.826;2023-04-24T00:46:50;10.30;99.90
20141;DHT22;10231;47.702;9.826;2023-04-24T00:49:23;10.30;99.90
20141;DHT22;10231;47.702;9.826;2023-04-24T00:51:49;10.30;99.90
20141;DHT22;10231;47.702;9.826;2023-04-24T00:54:17;10.30;99.90
20141;DHT22;10231;47.702;9.826;2023-04-24T00:56:44;10.20;99.90
20141;DHT22;10231;47.702;9.826;2023-04-24T00:59:10;10.20;99.90
20141;DHT22;10231;47.702;9.826;2023-04-24T01:01:36;10.10;99.90
20141;DHT22;10231;47.702;9.826;2023-04-24T01:04:02;10.20;99.90
20141;DHT22;10231;47.702;9.826;2023-04-24T01:06:29;10.20;99.90
20141;DHT22;10231;47.702;9.826;2023-04-24T01:08:57;10.20;99.90
20141;DHT22;10231;47.702;9.826;2023-04-24T01:11:24;10.30;99.90
20141;DHT22;10231;47.702;9.826;2023-04-24T01:13:50;10.20;99.90
20141;DHT22;10231;47.702;9.826;2023-04-24T01:16:15;10.10;99.90
20141;DHT22;10231;47.702;9.826;2023-04-24T01:18:43;10.10;99.90
20141;DHT22;10231;47.702;9.826;2023-04-24T01:21:09;10.20;99.90
20141;DHT22;10231;47.702;9.826;2023-04-24T01:23:37;10.10;99.90
20141;DHT22;10231;47.702;9.826;2023-04-24T01:26:02;10.10;99.90
20141;DHT22;10231;47.702;9.826;2023-04-24T01:28:28;10.10;99.90
20141;DHT22;10231;47.702;9.826;2023-04-24T01:30:54;10.10;99.90
20141;DHT22;10231;47.702;9.826;2023-04-24T01:33:21;10.00;99.90
20141;DHT22;10231;47.702;9.826;2023-04-24T01:35:47;10.00;99.90
20141;DHT22;10231;47.702;9.826;2023-04-24T01:38:13;10.00;99.90
20141;DHT22;10231;47.702;9.826;2023-04-24T01:40:39;10.00;99.90
20141;DHT22;10231;47.702;9.826;2023-04-24T01:43:04;10.10;99.90
20141;DHT22;10231;47.702;9.826;2023-04-24T01:45:30;10.00;99.90
20141;DHT22;10231;47.702;9.826;2023-04-24T01:47:56;10.00;99.90
20141;DHT22;10231;47.702;9.826;2023-04-24T01:50:22;10.00;99.90
20141;DHT22;10231;47.702;9.826;2023-04-24T01:52:47;9.90;99.90
20141;DHT22;10231;47.702;9.826;2023-04-24T01:55:13;9.80;99.90
20141;DHT22;10231;47.702;9.826;2023-04-24T01:57:39;9.80;99.90
20141;DHT22;10231;47.702;9.826;2023-04-24T02:00:05;9.80;99.90
20141;DHT22;10231;47.702;9.826;2023-04-24T02:02:32;9.70;99.90
20141;DHT22;10231;47.702;9.826;2023-04-24T02:04:58;9.60;99.90
20141;DHT22;10231;47.702;9.826;2023-04-24T02:07:23;9.60;99.90
20141;DHT22;10231;47.702;9.826;2023-04-24T02:09:49;9.50;99.90
20141;DHT22;10231;47.702;9.826;2023-04-24T02:12:15;9.50;99.90
20141;DHT22;10231;47.702;9.826;2023-04-24T02:14:41;9.50;99.90
20141;DHT22;10231;47.702;9.826;2023-04-24T02:17:07;9.50;99.90
20141;DHT22;10231;47.702;9.826;2023-04-24T02:19:33;9.50;99.90
20141;DHT22;10231;47.702;9.826;2023-04-24T02:21:58;9.40;99.90
20141;DHT22;10231;47.702;9.826;2023-04-24T02:24:24;9.40;99.90
20141;DHT22;10231;47.702;9.826;2023-04-24T02:26:49;9.40;99.90
20141;DHT22;10231;47.702;9.826;2023-04-24T02:29:15;9.40;99.90
20141;DHT22;10231;47.702;9.826;2023-04-24T02:31:41;9.40;99.90
20141;DHT22;10231;47.702;9.826;2023-04-24T02:34:06;9.40;99.90
20141;DHT22;10231;47.702;9.826;2023-04-24T02:36:32;9.40;99.90
20141;DHT22;10231;47.702;9.826;2023-04-24T02:38:57;9.40;99.90
20141;DHT22;10231;47.702;9.826;2023-04-24T02:41:23;9.40;99.90
20141;DHT22;10231;47.702;9.826;2023-04-24T02:43:49;9.40;99.90
20141;DHT22;10231;47.702;9.826;2023-04-24T02:46:14;9.40;99.90
20141;DHT22;10231;47.702;9.826;2023-04-24T02:48:40;9.40;99.90
20141;DHT22;10231;47.702;9.826;2023-04-24T02:51:06;9.30;99.90
20141;DHT22;10231;47.702;9.826;2023-04-24T02:53:32;9.30;99.90
20141;DHT22;10231;47.702;9.826;2023-04-24T02:55:58;9.30;99.90
20141;DHT22;10231;47.702;9.826;2023-04-24T02:58:24;9.30;99.90
20141;DHT22;10231;47.702;9.826;2023-04-24T03:00:53;9.30;99.90
20141;DHT22;10231;47.702;9.826;2023-04-24T03:03:20;9.30;99.90
20141;DHT22;10231;47.702;9.826;2023-04-24T03:05:45;9.40;99.90
20141;DHT22;10231;47.702;9.826;2023-04-24T03:08:11;9.40;99.90
20141;DHT22;10231;47.702;9.826;2023-04-24T03:10:36;9.40;99.90
20141;DHT22;10231;47.702;9.826;2023-04-24T03:13:02;9.30;99.90
20141;DHT22;10231;47.702;9.826;2023-04-24T03:15:27;9.30;99.90
20141;DHT22;10231;47.702;9.826;2023-04-24T03:17:53;9.30;99.90
20141;DHT22;10231;47.702;9.826;2023-04-24T03:20:19;9.30;99.90
20141;DHT22;10231;47.702;9.826;2023-04-24T03:22:44;9.30;99.90
20141;DHT22;10231;47.702;9.826;2023-04-24T03:25:10;9.20;99.90
20141;DHT22;10231;47.702;9.826;2023-04-24T03:27:35;9.30;99.90
20141;DHT22;10231;47.702;9.826;2023-04-24T03:30:01;9.30;99.90
20141;DHT22;10231;47.702;9.826;2023-04-24T03:32:27;9.20;99.90
20141;DHT22;10231;47.702;9.826;2023-04-24T03:34:53;9.20;99.90
20141;DHT22;10231;47.702;9.826;2023-04-24T03:37:18;9.20;99.90
20141;DHT22;10231;47.702;9.826;2023-04-24T03:39:44;9.20;99.90
20141;DHT22;10231;47.702;9.826;2023-04-24T03:42:10;9.20;99.90
20141;DHT22;10231;47.702;9.826;2023-04-24T03:44:36;9.20;99.90
20141;DHT22;10231;47.702;9.826;2023-04-24T03:47:01;9.20;99.90
20141;DHT22;10231;47.702;9.826;2023-04-24T03:49:27;9.20;99.90
20141;DHT22;10231;47.702;9.826;2023-04-24T03:51:53;9.10;99.90
20141;DHT22;10231;47.702;9.826;2023-04-24T03:54:19;9.10;99.90
20141;DHT22;10231;47.702;9.826;2023-04-24T03:56:45;9.10;99.90
20141;DHT22;10231;47.702;9.826;2023-04-24T03:59:11;9.20;99.90
20141;DHT22;10231;47.702;9.826;2023-04-24T04:01:37;9.20;99.90
20141;DHT22;10231;47.702;9.826;2023-04-24T04:04:06;9.30;99.90
20141;DHT22;10231;47.702;9.826;2023-04-24T04:06:32;9.20;99.90
20141;DHT22;10231;47.702;9.826;2023-04-24T04:08:58;9.20;99.90
20141;DHT22;10231;47.702;9.826;2023-04-24T04:11:24;9.20;99.90
20141;DHT22;10231;47.702;9.826;2023-04-24T04:13:50;9.10;99.90
20141;DHT22;10231;47.702;9.826;2023-04-24T04:16:16;9.10;99.90
20141;DHT22;10231;47.702;9.826;2023-04-24T04:18:43;9.10;99.90
20141;DHT22;10231;47.702;9.826;2023-04-24T04:21:08;9.10;99.90
20141;DHT22;10231;47.702;9.826;2023-04-24T04:23:34;9.10;99.90
20141;DHT22;10231;47.702;9.826;2023-04-24T04:26:00;9.10;99.90
20141;DHT22;10231;47.702;9.826;2023-04-24T04:28:26;9.10;99.90
20141;DHT22;10231;47.702;9.826;2023-04-24T04:30:52;9.10;99.90
20141;DHT22;10231;47.702;9.826;2023-04-24T04:33:21;9.10;99.90
20141;DHT22;10231;47.702;9.826;2023-04-24T04:35:47;9.00;99.90
20141;DHT22;10231;47.702;9.826;2023-04-24T04:38:17;9.10;99.90
20141;DHT22;10231;47.702;9.826;2023-04-24T04:40:43;9.00;99.90
20141;DHT22;10231;47.702;9.826;2023-04-24T04:43:09;9.00;99.90
20141;DHT22;10231;47.702;9.826;2023-04-24T04:45:36;9.10;99.90
20141;DHT22;10231;47.702;9.826;2023-04-24T04:48:04;9.10;99.90
20141;DHT22;10231;47.702;9.826;2023-04-24T04:50:31;9.00;99.90
20141;DHT22;10231;47.702;9.826;2023-04-24T04:52:56;9.00;99.90
20141;DHT22;10231;47.702;9.826;2023-04-24T04:55:22;9.10;99.90
20141;DHT22;10231;47.702;9.826;2023-04-24T04:57:47;9.10;99.90
20141;DHT22;10231;47.702;9.826;2023-04-24T05:00:13;9.10;99.90
20141;DHT22;10231;47.702;9.826;2023-04-24T05:02:39;9.10;99.90
20141;DHT22;10231;47.702;9.826;2023-04-24T05:05:06;9.10;99.90
20141;DHT22;10231;47.702;9.826;2023-04-24T05:07:32;9.10;99.90
20141;DHT22;10231;47.702;9.826;2023-04-24T05:09:58;9.00;99.90
20141;DHT22;10231;47.702;9.826;2023-04-24T05:12:23;9.10;99.90
20141;DHT22;10231;47.702;9.826;2023-04-24T05:14:49;9.10;99.90
20141;DHT22;10231;47.702;9.826;2023-04-24T05:17:15;9.10;99.90
20141;DHT22;10231;47.702;9.826;2023-04-24T05:19:40;9.10;99.90
20141;DHT22;10231;47.702;9.826;2023-04-24T05:22:06;9.10;99.90
20141;DHT22;10231;47.702;9.826;2023-04-24T05:24:35;9.10;99.90
20141;DHT22;10231;47.702;9.826;2023-04-24T05:27:02;9.10;99.90
20141;DHT22;10231;47.702;9.826;2023-04-24T05:29:28;9.00;99.90
20141;DHT22;10231;47.702;9.826;2023-04-24T05:31:56;9.00;99.90
20141;DHT22;10231;47.702;9.826;2023-04-24T05:34:21;8.90;99.90
20141;DHT22;10231;47.702;9.826;2023-04-24T05:36:47;9.00;99.90
20141;DHT22;10231;47.702;9.826;2023-04-24T05:39:14;9.10;99.90
20141;DHT22;10231;47.702;9.826;2023-04-24T05:41:40;9.10;99.90
20141;DHT22;10231;47.702;9.826;2023-04-24T05:44:06;9.10;99.90
20141;DHT22;10231;47.702;9.826;2023-04-24T05:46:31;9.10;99.90
20141;DHT22;10231;47.702;9.826;2023-04-24T05:48:57;9.10;99.90
20141;DHT22;10231;47.702;9.826;2023-04-24T05:51:23;9.10;99.90
20141;DHT22;10231;47.702;9.826;2023-04-24T05:53:49;9.10;99.90
20141;DHT22;10231;47.702;9.826;2023-04-24T05:56:15;9.20;99.90
20141;DHT22;10231;47.702;9.826;2023-04-24T05:58:41;9.10;99.90
20141;DHT22;10231;47.702;9.826;2023-04-24T06:01:06;9.10;99.90
20141;DHT22;10231;47.702;9.826;2023-04-24T06:03:32;9.10;99.90
20141;DHT22;10231;47.702;9.826;2023-04-24T06:05:58;9.10;99.90
20141;DHT22;10231;47.702;9.826;2023-04-24T06:08:23;9.10;99.90
20141;DHT22;10231;47.702;9.826;2023-04-24T06:10:49;9.10;99.90
20141;DHT22;10231;47.702;9.826;2023-04-24T06:13:15;9.10;99.90
20141;DHT22;10231;47.702;9.826;2023-04-24T06:15:41;9.10;99.90
20141;DHT22;10231;47.702;9.826;2023-04-24T06:18:07;9.00;99.90
20141;DHT22;10231;47.702;9.826;2023-04-24T06:20:32;9.00;99.90
20141;DHT22;10231;47.702;9.826;2023-04-24T06:22:58;9.10;99.90
20141;DHT22;10231;47.702;9.826;2023-04-24T06:25:26;9.10;99.90
20141;DHT22;10231;47.702;9.826;2023-04-24T06:27:52;9.10;99.90
20141;DHT22;10231;47.702;9.826;2023-04-24T06:30:17;9.10;99.90
20141;DHT22;10231;47.702;9.826;2023-04-24T06:32:43;9.10;99.90
20141;DHT22;10231;47.702;9.826;2023-04-24T06:35:09;9.10;99.90
20141;DHT22;10231;47.702;9.826;2023-04-24T06:37:35;9.00;99.90
20141;DHT22;10231;47.702;9.826;2023-04-24T06:40:01;9.10;99.90
20141;DHT22;10231;47.702;9.826;2023-04-24T06:42:26;9.00;99.90
20141;DHT22;10231;47.702;9.826;2023-04-24T06:44:52;9.10;99.90
20141;DHT22;10231;47.702;9.826;2023-04-24T06:47:18;9.10;99.90
20141;DHT22;10231;47.702;9.826;2023-04-24T06:49:43;9.10;99.90
20141;DHT22;10231;47.702;9.826;2023-04-24T06:52:09;9.10;99.90
20141;DHT22;10231;47.702;9.826;2023-04-24T06:54:35;9.20;99.90
20141;DHT22;10231;47.702;9.826;2023-04-24T06:57:00;9.20;99.90
20141;DHT22;10231;47.702;9.826;2023-04-24T06:59:27;9.20;99.90
20141;DHT22;10231;47.702;9.826;2023-04-24T07:01:54;9.30;99.90
20141;DHT22;10231;47.702;9.826;2023-04-24T07:04:19;9.30;99.90
20141;DHT22;10231;47.702;9.826;2023-04-24T07:06:47;9.40;99.90
20141;DHT22;10231;47.702;9.826;2023-04-24T07:09:13;9.40;99.90
20141;DHT22;10231;47.702;9.826;2023-04-24T07:11:42;9.50;99.90
20141;DHT22;10231;47.702;9.826;2023-04-24T07:14:09;9.40;99.90
20141;DHT22;10231;47.702;9.826;2023-04-24T07:16:35;9.40;99.90
20141;DHT22;10231;47.702;9.826;2023-04-24T07:19:01;9.50;99.90
20141;DHT22;10231;47.702;9.826;2023-04-24T07:21:26;9.40;99.90
20141;DHT22;10231;47.702;9.826;2023-04-24T07:23:52;9.40;99.90
20141;DHT22;10231;47.702;9.826;2023-04-24T07:26:18;9.40;99.90
20141;DHT22;10231;47.702;9.826;2023-04-24T07:28:43;9.40;99.90
20141;DHT22;10231;47.702;9.826;2023-04-24T07:31:10;9.40;99.90
20141;DHT22;10231;47.702;9.826;2023-04-24T07:33:36;9.50;99.90
20141;DHT22;10231;47.702;9.826;2023-04-24T07:36:02;9.40;99.90
20141;DHT22;10231;47.702;9.826;2023-04-24T07:38:29;9.50;99.90
20141;DHT22;10231;47.702;9.826;2023-04-24T07:40:55;9.50;99.90
20141;DHT22;10231;47.702;9.826;2023-04-24T07:43:21;9.70;99.90
20141;DHT22;10231;47.702;9.826;2023-04-24T07:45:47;9.70;99.90
20141;DHT22;10231;47.702;9.826;2023-04-24T07:48:12;9.70;99.90
20141;DHT22;10231;47.702;9.826;2023-04-24T07:50:41;9.70;99.90
20141;DHT22;10231;47.702;9.826;2023-04-24T07:53:07;9.70;99.90
20141;DHT22;10231;47.702;9.826;2023-04-24T07:55:33;9.70;99.90
20141;DHT22;10231;47.702;9.826;2023-04-24T07:57:58;9.70;99.90
20141;DHT22;10231;47.702;9.826;2023-04-24T08:00:24;9.70;99.90
20141;DHT22;10231;47.702;9.826;2023-04-24T08:02:49;9.70;99.90
20141;DHT22;10231;47.702;9.826;2023-04-24T08:05:15;9.70;99.90
20141;DHT22;10231;47.702;9.826;2023-04-24T08:07:41;9.80;99.90
20141;DHT22;10231;47.702;9.826;2023-04-24T08:10:09;9.70;99.90
20141;DHT22;10231;47.702;9.826;2023-04-24T08:12:36;9.70;99.90
20141;DHT22;10231;47.702;9.826;2023-04-24T08:15:02;9.80;99.90
20141;DHT22;10231;47.702;9.826;2023-04-24T08:17:27;9.80;99.90
20141;DHT22;10231;47.702;9.826;2023-04-24T08:19:53;9.80;99.90
20141;DHT22;10231;47.702;9.826;2023-04-24T08:22:26;9.90;99.90
20141;DHT22;10231;47.702;9.826;2023-04-24T08:24:52;9.90;99.90
20141;DHT22;10231;47.702;9.826;2023-04-24T08:27:18;9.90;99.90
20141;DHT22;10231;47.702;9.826;2023-04-24T08:29:43;9.90;99.90
20141;DHT22;10231;47.702;9.826;2023-04-24T08:32:09;9.90;99.90
20141;DHT22;10231;47.702;9.826;2023-04-24T08:34:34;9.90;99.90
20141;DHT22;10231;47.702;9.826;2023-04-24T08:37:00;10.00;99.90
20141;DHT22;10231;47.702;9.826;2023-04-24T08:39:26;10.20;99.90
20141;DHT22;10231;47.702;9.826;2023-04-24T08:41:52;10.40;99.90
20141;DHT22;10231;47.702;9.826;2023-04-24T08:44:19;10.40;99.90
20141;DHT22;10231;47.702;9.826;2023-04-24T08:46:45;10.50;99.90
20141;DHT22;10231;47.702;9.826;2023-04-24T08:49:14;10.50;99.90
20141;DHT22;10231;47.702;9.826;2023-04-24T08:51:41;10.60;99.90
20141;DHT22;10231;47.702;9.826;2023-04-24T08:54:07;10.60;99.90
20141;DHT22;10231;47.702;9.826;2023-04-24T08:56:33;10.50;99.90
20141;DHT22;10231;47.702;9.826;2023-04-24T08:58:59;10.50;99.90
20141;DHT22;10231;47.702;9.826;2023-04-24T09:01:25;10.60;99.90
20141;DHT22;10231;47.702;9.826;2023-04-24T09:03:51;10.60;99.90
20141;DHT22;10231;47.702;9.826;2023-04-24T09:06:19;10.60;99.90
20141;DHT22;10231;47.702;9.826;2023-04-24T09:08:47;10.40;99.90
20141;DHT22;10231;47.702;9.826;2023-04-24T09:11:13;10.30;99.90
20141;DHT22;10231;47.702;9.826;2023-04-24T09:13:38;10.30;99.90
20141;DHT22;10231;47.702;9.826;2023-04-24T09:16:04;10.10;99.90
20141;DHT22;10231;47.702;9.826;2023-04-24T09:18:30;10.10;99.90
20141;DHT22;10231;47.702;9.826;2023-04-24T09:21:00;10.10;99.90
20141;DHT22;10231;47.702;9.826;2023-04-24T09:23:31;10.20;99.90
20141;DHT22;10231;47.702;9.826;2023-04-24T09:25:57;10.20;99.90
20141;DHT22;10231;47.702;9.826;2023-04-24T09:28:30;10.30;99.90
20141;DHT22;10231;47.702;9.826;2023-04-24T09:31:05;10.30;99.90
20141;DHT22;10231;47.702;9.826;2023-04-24T09:33:31;10.40;99.90
20141;DHT22;10231;47.702;9.826;2023-04-24T09:35:56;10.30;99.90
20141;DHT22;10231;47.702;9.826;2023-04-24T09:38:37;10.10;99.90
20141;DHT22;10231;47.702;9.826;2023-04-24T09:41:05;10.00;99.90
20141;DHT22;10231;47.702;9.826;2023-04-24T09:43:32;9.90;99.90
20141;DHT22;10231;47.702;9.826;2023-04-24T09:45:58;9.90;99.90
20141;DHT22;10231;47.702;9.826;2023-04-24T09:48:35;10.00;99.90
20141;DHT22;10231;47.702;9.826;2023-04-24T09:51:02;10.00;99.90
20141;DHT22;10231;47.702;9.826;2023-04-24T09:53:30;10.00;99.90
20141;DHT22;10231;47.702;9.826;2023-04-24T09:55:56;10.00;99.90
20141;DHT22;10231;47.702;9.826;2023-04-24T09:58:28;10.10;99.90
20141;DHT22;10231;47.702;9.826;2023-04-24T10:00:55;10.10;99.90
20141;DHT22;10231;47.702;9.826;2023-04-24T10:03:23;10.20;99.90
20141;DHT22;10231;47.702;9.826;2023-04-24T10:05:49;10.10;99.90
20141;DHT22;10231;47.702;9.826;2023-04-24T10:08:16;10.10;99.90
20141;DHT22;10231;47.702;9.826;2023-04-24T10:10:43;10.10;99.90
20141;DHT22;10231;47.702;9.826;2023-04-24T10:13:10;10.20;99.90
20141;DHT22;10231;47.702;9.826;2023-04-24T10:15:37;10.20;99.90
20141;DHT22;10231;47.702;9.826;2023-04-24T10:18:04;10.20;99.90
20141;DHT22;10231;47.702;9.826;2023-04-24T10:20:32;10.30;99.90
20141;DHT22;10231;47.702;9.826;2023-04-24T10:22:59;10.30;99.90
20141;DHT22;10231;47.702;9.826;2023-04-24T10:25:30;10.40;99.90
20141;DHT22;10231;47.702;9.826;2023-04-24T10:27:58;10.40;99.90
20141;DHT22;10231;47.702;9.826;2023-04-24T10:30:32;10.40;99.90
20141;DHT22;10231;47.702;9.826;2023-04-24T10:33:06;10.40;99.90
20141;DHT22;10231;47.702;9.826;2023-04-24T10:35:36;10.40;99.90
20141;DHT22;10231;47.702;9.826;2023-04-24T10:38:09;10.50;99.90
20141;DHT22;10231;47.702;9.826;2023-04-24T10:40:36;10.60;99.90
20141;DHT22;10231;47.702;9.826;2023-04-24T10:43:03;10.60;99.90
20141;DHT22;10231;47.702;9.826;2023-04-24T10:45:31;10.50;99.90
20141;DHT22;10231;47.702;9.826;2023-04-24T10:47:59;10.50;99.90
20141;DHT22;10231;47.702;9.826;2023-04-24T10:50:27;10.40;99.90
20141;DHT22;10231;47.702;9.826;2023-04-24T10:52:53;10.50;99.90
20141;DHT22;10231;47.702;9.826;2023-04-24T10:55:40;10.50;99.90
20141;DHT22;10231;47.702;9.826;2023-04-24T10:58:06;10.60;99.90
20141;DHT22;10231;47.702;9.826;2023-04-24T11:00:32;10.70;99.90
20141;DHT22;10231;47.702;9.826;2023-04-24T11:02:57;10.80;99.90
20141;DHT22;10231;47.702;9.826;2023-04-24T11:05:50;10.70;99.90
20141;DHT22;10231;47.702;9.826;2023-04-24T11:08:22;11.00;99.90
20141;DHT22;10231;47.702;9.826;2023-04-24T11:10:56;11.10;99.90
20141;DHT22;10231;47.702;9.826;2023-04-24T11:13:27;11.20;99.90
20141;DHT22;10231;47.702;9.826;2023-04-24T11:16:12;11.10;99.90
20141;DHT22;10231;47.702;9.826;2023-04-24T11:18:38;11.10;99.90
20141;DHT22;10231;47.702;9.826;2023-04-24T11:21:17;11.10;99.90
20141;DHT22;10231;47.702;9.826;2023-04-24T11:23:42;11.10;99.90
20141;DHT22;10231;47.702;9.826;2023-04-24T11:26:23;11.00;99.90
20141;DHT22;10231;47.702;9.826;2023-04-24T11:29:06;10.90;99.90
20141;DHT22;10231;47.702;9.826;2023-04-24T11:31:44;10.70;99.90
20141;DHT22;10231;47.702;9.826;2023-04-24T11:34:15;10.70;99.90
20141;DHT22;10231;47.702;9.826;2023-04-24T11:36:46;10.70;99.90
20141;DHT22;10231;47.702;9.826;2023-04-24T11:39:12;10.70;99.90
20141;DHT22;10231;47.702;9.826;2023-04-24T11:41:38;10.70;99.90
20141;DHT22;10231;47.702;9.826;2023-04-24T11:44:08;10.70;99.90
20141;DHT22;10231;47.702;9.826;2023-04-24T11:46:34;10.70;99.90
20141;DHT22;10231;47.702;9.826;2023-04-24T11:48:59;10.90;99.90
20141;DHT22;10231;47.702;9.826;2023-04-24T11:51:28;10.90;99.90
20141;DHT22;10231;47.702;9.826;2023-04-24T11:53:55;11.00;99.90
20141;DHT22;10231;47.702;9.826;2023-04-24T11:56:22;11.00;99.90
20141;DHT22;10231;47.702;9.826;2023-04-24T11:58:48;11.20;99.90
20141;DHT22;10231;47.702;9.826;2023-04-24T12:01:14;11.40;99.90
20141;DHT22;10231;47.702;9.826;2023-04-24T12:03:40;11.40;99.90
20141;DHT22;10231;47.702;9.826;2023-04-24T12:06:11;11.30;99.90
20141;DHT22;10231;47.702;9.826;2023-04-24T12:08:37;11.30;99.90
20141;DHT22;10231;47.702;9.826;2023-04-24T12:11:05;11.40;99.90
20141;DHT22;10231;47.702;9.826;2023-04-24T12:13:35;11.50;99.90
20141;DHT22;10231;47.702;9.826;2023-04-24T12:16:04;11.40;99.90
20141;DHT22;10231;47.702;9.826;2023-04-24T12:18:31;11.30;99.90
20141;DHT22;10231;47.702;9.826;2023-04-24T12:21:21;11.40;99.90
20141;DHT22;10231;47.702;9.826;2023-04-24T12:23:47;11.40;99.90
20141;DHT22;10231;47.702;9.826;2023-04-24T12:26:17;11.40;99.90
20141;DHT22;10231;47.702;9.826;2023-04-24T12:28:47;11.40;99.90
20141;DHT22;10231;47.702;9.826;2023-04-24T12:31:12;11.40;99.90
20141;DHT22;10231;47.702;9.826;2023-04-24T12:33:38;11.40;99.90
20141;DHT22;10231;47.702;9.826;2023-04-24T12:36:04;11.50;99.90
20141;DHT22;10231;47.702;9.826;2023-04-24T12:38:30;11.50;99.90
20141;DHT22;10231;47.702;9.826;2023-04-24T12:41:13;11.50;99.90
20141;DHT22;10231;47.702;9.826;2023-04-24T12:43:51;11.50;99.90
20141;DHT22;10231;47.702;9.826;2023-04-24T12:46:16;11.70;99.90
20141;DHT22;10231;47.702;9.826;2023-04-24T12:48:42;11.70;99.90
20141;DHT22;10231;47.702;9.826;2023-04-24T12:51:07;11.60;99.90
20141;DHT22;10231;47.702;9.826;2023-04-24T12:53:33;11.90;99.90
20141;DHT22;10231;47.702;9.826;2023-04-24T12:55:58;12.00;99.90
20141;DHT22;10231;47.702;9.826;2023-04-24T12:58:24;11.90;99.90
20141;DHT22;10231;47.702;9.826;2023-04-24T13:00:50;11.80;99.90
20141;DHT22;10231;47.702;9.826;2023-04-24T13:03:17;11.90;99.90
20141;DHT22;10231;47.702;9.826;2023-04-24T13:05:43;12.00;99.90
20141;DHT22;10231;47.702;9.826;2023-04-24T13:08:09;12.00;99.90
20141;DHT22;10231;47.702;9.826;2023-04-24T13:10:35;12.20;99.90
20141;DHT22;10231;47.702;9.826;2023-04-24T13:13:01;12.30;99.90
20141;DHT22;10231;47.702;9.826;2023-04-24T13:15:26;12.40;99.90
20141;DHT22;10231;47.702;9.826;2023-04-24T13:17:52;12.30;99.90
20141;DHT22;10231;47.702;9.826;2023-04-24T13:20:17;12.20;99.90
20141;DHT22;10231;47.702;9.826;2023-04-24T13:22:43;12.30;99.90
20141;DHT22;10231;47.702;9.826;2023-04-24T13:25:09;12.50;99.90
20141;DHT22;10231;47.702;9.826;2023-04-24T13:27:35;12.80;99.90
20141;DHT22;10231;47.702;9.826;2023-04-24T13:30:01;13.00;99.90
20141;DHT22;10231;47.702;9.826;2023-04-24T13:32:26;13.30;99.90
20141;DHT22;10231;47.702;9.826;2023-04-24T13:34:53;13.30;99.90
20141;DHT22;10231;47.702;9.826;2023-04-24T13:37:18;13.30;99.90
20141;DHT22;10231;47.702;9.826;2023-04-24T13:39:44;13.40;99.90
20141;DHT22;10231;47.702;9.826;2023-04-24T13:42:09;13.70;99.90
20141;DHT22;10231;47.702;9.826;2023-04-24T13:44:37;13.50;99.90
20141;DHT22;10231;47.702;9.826;2023-04-24T13:47:03;13.20;99.90
20141;DHT22;10231;47.702;9.826;2023-04-24T13:49:28;13.00;99.90
20141;DHT22;10231;47.702;9.826;2023-04-24T13:51:55;12.90;99.90
20141;DHT22;10231;47.702;9.826;2023-04-24T13:54:21;13.00;99.90
20141;DHT22;10231;47.702;9.826;2023-04-24T13:56:48;13.20;99.90
20141;DHT22;10231;47.702;9.826;2023-04-24T13:59:14;13.50;99.90
20141;DHT22;10231;47.702;9.826;2023-04-24T14:01:40;13.80;99.90
20141;DHT22;10231;47.702;9.826;2023-04-24T14:04:05;14.10;99.90
20141;DHT22;10231;47.702;9.826;2023-04-24T14:06:31;14.20;99.90
20141;DHT22;10231;47.702;9.826;2023-04-24T14:08:56;14.10;99.90
20141;DHT22;10231;47.702;9.826;2023-04-24T14:11:22;13.90;99.70
20141;DHT22;10231;47.702;9.826;2023-04-24T14:13:48;13.90;98.90
20141;DHT22;10231;47.702;9.826;2023-04-24T14:16:14;13.80;99.80
20141;DHT22;10231;47.702;9.826;2023-04-24T14:18:40;13.70;99.90
20141;DHT22;10231;47.702;9.826;2023-04-24T14:21:05;13.70;99.30
20141;DHT22;10231;47.702;9.826;2023-04-24T14:23:31;13.90;99.40
20141;DHT22;10231;47.702;9.826;2023-04-24T14:25:58;14.20;98.00
20141;DHT22;10231;47.702;9.826;2023-04-24T14:28:24;14.30;99.50
20141;DHT22;10231;47.702;9.826;2023-04-24T14:30:50;14.60;97.70
20141;DHT22;10231;47.702;9.826;2023-04-24T14:33:15;14.80;97.80
20141;DHT22;10231;47.702;9.826;2023-04-24T14:35:41;15.00;98.80
20141;DHT22;10231;47.702;9.826;2023-04-24T14:38:10;15.10;98.10
20141;DHT22;10231;47.702;9.826;2023-04-24T14:40:36;15.20;96.60
20141;DHT22;10231;47.702;9.826;2023-04-24T14:43:02;15.00;95.70
20141;DHT22;10231;47.702;9.826;2023-04-24T14:45:28;15.10;95.40
20141;DHT22;10231;47.702;9.826;2023-04-24T14:47:53;15.00;96.80
20141;DHT22;10231;47.702;9.826;2023-04-24T14:50:19;15.10;95.40
20141;DHT22;10231;47.702;9.826;2023-04-24T14:52:45;15.20;95.80
20141;DHT22;10231;47.702;9.826;2023-04-24T14:55:11;15.10;95.00
20141;DHT22;10231;47.702;9.826;2023-04-24T14:57:37;15.20;95.30
20141;DHT22;10231;47.702;9.826;2023-04-24T15:00:04;15.30;95.40
20141;DHT22;10231;47.702;9.826;2023-04-24T15:02:39;15.60;95.50
20141;DHT22;10231;47.702;9.826;2023-04-24T15:05:07;15.90;95.10
20141;DHT22;10231;47.702;9.826;2023-04-24T15:07:33;16.00;94.20
20141;DHT22;10231;47.702;9.826;2023-04-24T15:10:00;16.10;94.10
20141;DHT22;10231;47.702;9.826;2023-04-24T15:12:26;16.00;93.40
20141;DHT22;10231;47.702;9.826;2023-04-24T15:14:51;16.00;93.20
20141;DHT22;10231;47.702;9.826;2023-04-24T15:17:17;15.70;93.70
20141;DHT22;10231;47.702;9.826;2023-04-24T15:19:43;15.10;94.40
20141;DHT22;10231;47.702;9.826;2023-04-24T15:22:09;14.60;94.50
20141;DHT22;10231;47.702;9.826;2023-04-24T15:24:35;14.20;95.70
20141;DHT22;10231;47.702;9.826;2023-04-24T15:27:00;13.80;95.60
20141;DHT22;10231;47.702;9.826;2023-04-24T15:29:27;13.90;96.60
20141;DHT22;10231;47.702;9.826;2023-04-24T15:31:53;14.20;95.80
20141;DHT22;10231;47.702;9.826;2023-04-24T15:34:19;14.60;95.50